Time;durP1;ratioP1;P1;durP2;ratioP2;P2;SDS_P1;SDS_P2;PMS_P1;PMS_P2;Temp;Humidity;BMP_temperature;BMP_pressure;BME280_temperature;BME280_humidity;BME280_pressure;Samples;Min_cycle;Max_cycle;Signal;HPM_P1;HPM_P2
2021/04/28 00:02:42;;;;;;;;;18.00;18.00;;;;;5.84;81.61;101377.84;4885851;29;11709;-74
2021/04/28 00:05:11;;;;;;;;;15.75;15.75;;;;;5.91;81.25;101377.56;4899347;29;11615;-74
2021/04/28 00:08:07;;;;;;;;;16.50;16.50;;;;;5.76;80.93;101378.44;4899059;29;11592;-74
2021/04/28 00:11:04;;;;;;;;;12.50;12.50;;;;;5.91;80.64;101387.72;4897806;29;11674;-74
2021/04/28 00:14:00;;;;;;;;;13.00;13.00;;;;;6.16;79.97;101378.50;4870582;29;11598;-74
2021/04/28 00:16:56;;;;;;;;;14.50;13.75;;;;;5.99;80.04;101393.44;4867191;29;11596;-74
2021/04/28 00:19:29;;;;;;;;;13.00;13.00;;;;;6.32;79.36;101394.59;4880625;29;11610;-74
2021/04/28 00:22:25;;;;;;;;;8.50;8.50;;;;;6.17;78.82;101396.63;4880105;29;11586;-74
2021/04/28 00:24:52;;;;;;;;;10.25;10.25;;;;;5.97;78.91;101398.38;4881442;29;11654;-75
2021/04/28 00:27:48;;;;;;;;;11.00;11.00;;;;;6.16;78.46;101393.06;4880135;29;11735;-74
2021/04/28 00:30:44;;;;;;;;;13.00;13.00;;;;;6.03;79.44;101404.66;4881582;29;11756;-74
2021/04/28 00:33:40;;;;;;;;;12.00;12.00;;;;;6.22;79.45;101402.09;4884660;29;11567;-74
2021/04/28 00:36:35;;;;;;;;;9.75;9.75;;;;;6.06;78.66;101409.63;4885581;29;12311;-74
2021/04/28 00:39:31;;;;;;;;;13.25;13.25;;;;;5.90;79.08;101403.31;4897660;29;11575;-74
2021/04/28 00:42:26;;;;;;;;;11.75;10.50;;;;;6.19;78.57;101403.47;4879011;29;11614;-73
2021/04/28 00:45:25;;;;;;;;;11.25;11.25;;;;;6.06;78.75;101407.69;4879184;29;11633;-73
2021/04/28 00:48:20;;;;;;;;;10.75;10.75;;;;;6.16;78.52;101417.78;4866652;29;11587;-73
2021/04/28 00:50:49;;;;;;;;;10.00;10.00;;;;;6.17;78.97;101415.84;4863617;29;12402;-74
2021/04/28 00:53:46;;;;;;;;;12.00;12.00;;;;;6.24;78.44;101419.94;4879681;29;11681;-74
2021/04/28 00:56:43;;;;;;;;;11.25;11.25;;;;;6.08;78.69;101418.38;4878989;29;11678;-73
2021/04/28 00:59:39;;;;;;;;;10.50;10.50;;;;;5.85;79.09;101420.66;4878738;29;11618;-73
2021/04/28 01:02:34;;;;;;;;;9.00;9.00;;;;;5.98;79.23;101415.66;4878652;29;11590;-73
2021/04/28 01:05:30;;;;;;;;;12.25;12.25;;;;;5.92;79.31;101419.56;4879519;29;11555;-74
2021/04/28 01:08:26;;;;;;;;;10.25;10.25;;;;;5.84;79.83;101410.78;4878354;29;11578;-73
2021/04/28 01:11:22;;;;;;;;;10.75;10.50;;;;;6.07;78.62;101417.56;4867647;29;11583;-73
2021/04/28 01:14:03;;;;;;;;;9.50;9.50;;;;;5.75;80.04;101412.47;4883484;29;11612;-73
2021/04/28 01:17:01;;;;;;;;;8.50;8.50;;;;;5.57;80.24;101413.91;4897100;29;11655;-74
2021/04/28 01:19:42;;;;;;;;;8.50;8.50;;;;;5.79;80.09;101413.53;4883901;29;11612;-74
2021/04/28 01:22:11;;;;;;;;;9.00;9.00;;;;;5.74;80.18;101408.06;4898125;29;11650;-73
2021/04/28 01:24:39;;;;;;;;;10.75;10.75;;;;;5.89;79.96;101412.66;4872629;29;11649;-73
2021/04/28 01:27:26;;;;;;;;;10.25;10.25;;;;;5.94;79.88;101409.13;4879215;29;12401;-73
2021/04/28 01:30:29;;;;;;;;;9.50;9.50;;;;;5.87;79.59;101414.88;4878225;29;11609;-73
2021/04/28 01:33:28;;;;;;;;;13.50;13.50;;;;;5.93;79.94;101415.72;4878242;29;11635;-74
2021/04/28 01:36:27;;;;;;;;;14.00;12.75;;;;;5.80;79.93;101425.34;4865854;29;11606;-74
2021/04/28 01:39:23;;;;;;;;;15.25;15.25;;;;;5.92;79.61;101428.63;4865703;29;11623;-73
2021/04/28 01:42:19;;;;;;;;;13.75;13.75;;;;;5.96;79.37;101429.69;4877990;29;11694;-74
2021/04/28 01:45:16;;;;;;;;;12.00;12.00;;;;;5.78;80.00;101428.38;4878069;29;11597;-73
2021/04/28 01:48:13;;;;;;;;;14.75;14.75;;;;;5.92;79.26;101442.34;4877478;29;11596;-73
2021/04/28 01:50:41;;;;;;;;;17.75;17.75;;;;;5.93;79.68;101451.41;4879292;29;11096;-73
2021/04/28 01:53:10;;;;;;;;;15.50;15.50;;;;;5.93;79.42;101448.66;4879185;29;11123;-72
2021/04/28 01:56:06;;;;;;;;;15.75;15.75;;;;;5.96;79.31;101459.06;4865747;29;12351;-73
2021/04/28 01:59:03;;;;;;;;;16.00;16.00;;;;;5.97;79.31;101466.19;4865540;29;11621;-73
2021/04/28 02:02:01;;;;;;;;;11.25;11.25;;;;;5.76;79.62;101455.28;4877760;29;11608;-73
2021/04/28 02:04:57;;;;;;;;;13.00;13.00;;;;;5.84;79.60;101467.63;4877958;29;11719;-73
2021/04/28 02:07:53;;;;;;;;;13.25;13.25;;;;;6.03;79.16;101465.09;4878019;29;11691;-74
2021/04/28 02:10:48;;;;;;;;;13.25;13.25;;;;;5.93;79.38;101473.38;4890007;29;11747;-74
2021/04/28 02:13:48;;;;;;;;;16.00;16.00;;;;;5.84;79.44;101479.41;4883853;29;11598;-74
2021/04/28 02:16:44;;;;;;;;;13.50;13.50;;;;;6.03;79.40;101473.31;4883876;29;11626;-73
2021/04/28 02:19:13;;;;;;;;;16.75;16.75;;;;;6.08;78.98;101484.28;4884042;29;11734;-73
2021/04/28 02:21:44;;;;;;;;;15.00;15.00;;;;;6.15;78.81;101484.81;4899124;29;11633;-73
2021/04/28 02:24:41;;;;;;;;;17.25;17.25;;;;;6.09;79.09;101483.19;4887660;29;11698;-73
2021/04/28 02:27:40;;;;;;;;;17.25;17.25;;;;;6.06;78.74;101492.00;4900137;29;11590;-73
2021/04/28 02:30:37;;;;;;;;;19.50;18.75;;;;;5.99;79.59;101496.97;4900201;29;11810;-73
2021/04/28 02:33:37;;;;;;;;;18.00;16.50;;;;;6.03;79.45;101498.03;4890472;29;11707;-73
2021/04/28 02:36:36;;;;;;;;;14.50;14.50;;;;;6.04;79.26;101503.25;4881945;29;11780;-73
2021/04/28 02:39:39;;;;;;;;;16.25;16.25;;;;;6.03;79.30;101493.38;4898859;29;11606;-73
2021/04/28 02:42:34;;;;;;;;;14.25;14.25;;;;;5.96;79.50;101500.25;4887462;29;11782;-73
2021/04/28 02:45:31;;;;;;;;;13.75;13.75;;;;;5.96;79.65;101506.56;4899698;29;11680;-73
2021/04/28 02:48:00;;;;;;;;;15.00;15.00;;;;;5.98;79.27;101509.88;4877838;29;11704;-73
2021/04/28 02:50:56;;;;;;;;;12.75;12.75;;;;;6.09;79.16;101516.16;4892134;29;12383;-73
2021/04/28 02:53:27;;;;;;;;;17.00;15.50;;;;;6.10;79.15;101513.09;4916864;29;11594;-73
2021/04/28 02:56:04;;;;;;;;;20.75;20.25;;;;;6.10;79.21;101512.28;4916391;29;12297;-73
2021/04/28 02:58:32;;;;;;;;;15.50;15.50;;;;;5.97;79.08;101521.94;4881998;29;11661;-73
2021/04/28 03:01:28;;;;;;;;;16.25;15.75;;;;;5.93;79.40;101526.34;4880657;29;11596;-74
2021/04/28 03:04:25;;;;;;;;;17.00;16.75;;;;;5.89;79.36;101524.41;4880796;29;11625;-74
2021/04/28 03:07:21;;;;;;;;;21.50;21.00;;;;;5.85;79.64;101535.13;4868240;29;11673;-74
2021/04/28 03:10:18;;;;;;;;;21.25;21.00;;;;;5.83;79.97;101540.09;4880612;29;11724;-73
2021/04/28 03:13:14;;;;;;;;;26.25;25.25;;;;;5.92;79.69;101549.44;4886995;29;11651;-73
2021/04/28 03:16:10;;;;;;;;;27.00;27.00;;;;;5.76;80.19;101547.78;4899453;29;11722;-74
2021/04/28 03:19:07;;;;;;;;;24.00;21.25;;;;;5.51;81.11;101546.72;4894988;29;11688;-74
2021/04/28 03:21:44;;;;;;;;;25.00;24.50;;;;;5.54;81.02;101553.59;4890806;29;11595;-74
2021/04/28 03:24:27;;;;;;;;;24.25;24.25;;;;;5.63;81.14;101560.16;4892271;29;11708;-74
2021/04/28 03:27:24;;;;;;;;;15.50;15.50;;;;;5.57;81.42;101553.03;4889099;29;11609;-73
2021/04/28 03:30:23;;;;;;;;;18.50;18.50;;;;;5.58;81.35;101557.41;4864924;29;11556;-73
2021/04/28 03:33:22;;;;;;;;;22.00;22.00;;;;;5.66;81.12;101567.00;4869278;29;11668;-73
2021/04/28 03:36:18;;;;;;;;;21.00;20.50;;;;;5.59;81.40;101564.53;4887327;29;11703;-74
2021/04/28 03:39:13;;;;;;;;;19.75;19.75;;;;;5.74;80.90;101575.50;4886059;29;11616;-73
2021/04/28 03:42:09;;;;;;;;;21.50;21.50;;;;;5.94;80.52;101579.34;4892713;29;11646;-73
2021/04/28 03:45:10;;;;;;;;;22.50;22.25;;;;;6.01;80.41;101588.13;4887675;29;11604;-79
2021/04/28 03:47:40;;;;;;;;;26.25;25.50;;;;;6.00;80.28;101591.97;4892645;29;12394;-80
2021/04/28 03:50:36;;;;;;;;;25.25;24.75;;;;;6.16;80.22;101592.75;4897226;29;11615;-82
2021/04/28 03:53:33;;;;;;;;;24.75;24.75;;;;;6.29;79.72;101593.00;4889217;29;11612;-82
2021/04/28 03:56:28;;;;;;;;;25.00;25.00;;;;;6.33;79.37;101602.28;4870634;29;11726;-80
2021/04/28 03:59:24;;;;;;;;;24.75;23.25;;;;;6.55;78.87;101609.38;4871376;29;11622;-82
2021/04/28 04:02:38;;;;;;;;;18.75;18.75;;;;;6.41;78.48;101600.91;4877846;29;11697;-81
2021/04/28 04:05:33;;;;;;;;;25.50;25.50;;;;;6.46;78.46;101605.56;4888237;29;11686;-81
2021/04/28 04:08:30;;;;;;;;;25.00;25.00;;;;;6.68;78.47;101600.53;4875347;29;11693;-83
2021/04/28 04:11:17;;;;;;;;;21.50;20.75;;;;;6.43;78.49;101595.13;4868063;29;11699;-81
2021/04/28 04:14:13;;;;;;;;;20.75;20.75;;;;;6.71;78.14;101597.19;4876829;29;11697;-83
2021/04/28 04:16:55;;;;;;;;;25.25;25.25;;;;;6.75;78.14;101612.03;4879917;29;11815;-82
2021/04/28 04:19:22;;;;;;;;;24.00;23.00;;;;;6.82;77.70;101603.44;4868591;29;11676;-81
2021/04/28 04:22:22;;;;;;;;;23.50;23.00;;;;;6.89;77.62;101604.78;4888893;29;11730;-81
2021/04/28 04:25:18;;;;;;;;;20.25;20.25;;;;;7.20;77.13;101605.41;4875012;29;11706;-82
2021/04/28 04:28:13;;;;;;;;;25.25;24.25;;;;;7.40;77.13;101611.88;4876536;29;12449;-81
2021/04/28 04:31:09;;;;;;;;;35.25;33.50;;;;;7.46;75.73;101606.06;4869966;29;11627;-82
2021/04/28 04:34:05;;;;;;;;;26.50;26.50;;;;;7.23;76.51;101626.03;4885316;29;11877;-82
2021/04/28 04:37:00;;;;;;;;;34.50;34.25;;;;;7.36;76.29;101630.91;4883737;29;12347;-81
2021/04/28 04:39:56;;;;;;;;;27.00;27.00;;;;;7.24;75.94;101630.44;4882524;29;11687;-75
2021/04/28 04:42:51;;;;;;;;;30.00;30.00;;;;;7.31;76.34;101633.69;4889847;29;11618;-75
2021/04/28 04:45:36;;;;;;;;;26.50;25.00;;;;;7.40;75.69;101633.91;4874069;29;11673;-74
2021/04/28 04:48:31;;;;;;;;;28.25;28.25;;;;;7.81;75.43;101634.38;4869403;29;11701;-75
2021/04/28 04:51:17;;;;;;;;;19.75;19.75;;;;;7.78;75.00;101640.47;4884051;29;11687;-75
2021/04/28 04:54:13;;;;;;;;;21.50;20.50;;;;;7.95;73.94;101638.09;4887730;29;11628;-75
2021/04/28 04:56:40;;;;;;;;;20.00;20.00;;;;;8.08;74.20;101639.38;4883675;29;11607;-75
2021/04/28 04:59:36;;;;;;;;;17.50;17.50;;;;;8.13;72.71;101650.34;4877749;29;11605;-74
2021/04/28 05:02:04;;;;;;;;;15.50;15.50;;;;;8.36;72.61;101651.50;4862864;29;11675;-76
2021/04/28 05:04:45;;;;;;;;;16.00;16.00;;;;;8.41;72.06;101656.94;4894140;29;11623;-75
2021/04/28 05:07:42;;;;;;;;;15.25;15.25;;;;;8.38;71.61;101665.81;4881674;29;11697;-76
2021/04/28 05:10:38;;;;;;;;;7.25;7.25;;;;;8.58;71.58;101671.06;4897272;29;11626;-76
2021/04/28 05:13:33;;;;;;;;;16.50;16.50;;;;;8.72;76.04;101673.97;4895114;29;11645;-78
2021/04/28 05:16:31;;;;;;;;;20.00;19.00;;;;;9.47;76.38;101665.75;4884393;29;11596;-78
2021/04/28 05:19:28;;;;;;;;;18.00;18.00;;;;;9.84;78.50;101671.53;4897040;29;11713;-79
2021/04/28 05:21:56;;;;;;;;;20.00;18.25;;;;;9.80;73.56;101682.34;4897800;29;11547;-78
2021/04/28 05:24:25;;;;;;;;;16.25;16.25;;;;;9.63;72.10;101687.59;4899055;29;11599;-78
2021/04/28 05:26:54;;;;;;;;;26.50;26.50;;;;;9.81;70.91;101683.16;4897162;29;12381;-79
2021/04/28 05:29:49;;;;;;;;;32.25;32.00;;;;;10.03;72.75;101681.41;4883644;29;11607;-80
2021/04/28 05:32:17;;;;;;;;;45.00;41.00;;;;;10.05;71.54;101685.81;4897961;29;11783;-79
2021/04/28 05:35:13;;;;;;;;;80.25;66.75;;;;;9.89;68.84;101688.00;4889220;29;11704;-79
2021/04/28 05:37:54;;;;;;;;;19.00;19.00;;;;;9.79;67.76;101690.94;4889183;29;11620;-79
2021/04/28 05:40:42;;;;;;;;;19.75;19.75;;;;;9.32;67.77;101688.06;4883994;29;11545;-79
2021/04/28 05:43:09;;;;;;;;;27.75;27.75;;;;;9.14;70.33;101691.66;4881233;29;11624;-79
2021/04/28 05:46:02;;;;;;;;;18.50;18.50;;;;;9.31;70.03;101686.44;4897665;29;11626;-78
2021/04/28 05:48:57;;;;;;;;;47.75;42.50;;;;;9.55;71.15;101682.75;4883979;29;11663;-79
2021/04/28 05:51:54;;;;;;;;;18.00;18.00;;;;;9.52;68.75;101689.72;4897393;29;11611;-79
2021/04/28 05:54:22;;;;;;;;;17.00;17.00;;;;;9.36;69.08;101689.13;4897405;29;11553;-77
2021/04/28 05:57:18;;;;;;;;;18.75;18.50;;;;;9.61;68.69;101690.66;4888615;29;11630;-77
2021/04/28 06:00:08;;;;;;;;;16.50;16.50;;;;;9.63;68.87;101702.22;4897643;29;12458;-78
2021/04/28 06:03:04;;;;;;;;;17.50;17.50;;;;;9.83;68.88;101689.22;4895289;29;11602;-77
2021/04/28 06:05:59;;;;;;;;;22.00;16.00;;;;;9.87;68.21;101698.53;4897197;29;11594;-76
2021/04/28 06:08:55;;;;;;;;;24.50;24.50;;;;;9.88;68.46;101698.22;4894084;29;11611;-78
2021/04/28 06:11:39;;;;;;;;;23.75;23.75;;;;;10.03;68.01;101695.22;4882183;29;11555;-77
2021/04/28 06:14:34;;;;;;;;;16.75;16.75;;;;;9.97;67.67;101704.75;4889073;29;11599;-76
2021/04/28 06:17:06;;;;;;;;;18.50;17.75;;;;;9.66;67.37;101698.88;4897561;29;11540;-78
2021/04/28 06:20:09;;;;;;;;;18.25;18.25;;;;;9.92;67.32;101706.75;4883517;29;11533;-77
2021/04/28 06:23:05;;;;;;;;;17.50;17.00;;;;;10.00;65.92;101706.06;4885651;29;12327;-76
2021/04/28 06:25:35;;;;;;;;;17.00;17.00;;;;;10.01;64.46;101725.09;4889297;29;11620;-77
2021/04/28 06:28:31;;;;;;;;;17.25;17.25;;;;;10.15;64.41;101716.88;4896125;29;11569;-77
2021/04/28 06:31:26;;;;;;;;;13.75;13.75;;;;;10.28;63.15;101721.66;4895717;29;11648;-77
2021/04/28 06:33:58;;;;;;;;;14.00;14.00;;;;;10.34;62.99;101716.00;4897368;29;11335;-77
2021/04/28 06:36:53;;;;;;;;;13.50;13.50;;;;;10.12;62.13;101717.47;4896502;29;11254;-77
2021/04/28 06:39:49;;;;;;;;;15.50;15.50;;;;;10.12;62.41;101728.53;4870417;29;11396;-76
2021/04/28 06:42:44;;;;;;;;;18.25;18.25;;;;;10.34;62.11;101721.53;4870559;29;11206;-78
2021/04/28 06:45:40;;;;;;;;;16.25;16.25;;;;;10.61;61.85;101729.88;4885844;29;11425;-77
2021/04/28 06:48:36;;;;;;;;;14.75;14.75;;;;;11.02;61.82;101729.06;4894899;29;11623;-78
2021/04/28 06:51:31;;;;;;;;;17.75;17.75;;;;;11.09;60.18;101726.69;4896118;29;11984;-77
2021/04/28 06:54:27;;;;;;;;;13.75;13.75;;;;;10.97;59.93;101731.97;4894702;29;11121;-77
2021/04/28 06:57:22;;;;;;;;;15.50;15.50;;;;;11.16;58.82;101729.88;4877623;29;11041;-78
2021/04/28 06:59:50;;;;;;;;;9.75;9.75;;;;;11.13;58.00;101730.50;4861888;29;11224;-77
2021/04/28 07:02:45;;;;;;;;;14.50;14.50;;;;;11.29;57.10;101734.59;4878497;29;10840;-78
2021/04/28 07:05:41;;;;;;;;;15.75;14.75;;;;;11.03;57.38;101736.22;4868177;29;11134;-77
2021/04/28 07:08:38;;;;;;;;;13.00;13.00;;;;;11.17;56.46;101736.22;4886807;29;11677;-78
2021/04/28 07:11:34;;;;;;;;;9.25;9.25;;;;;10.98;57.33;101730.81;4887051;29;11050;-77
2021/04/28 07:14:30;;;;;;;;;19.50;17.50;;;;;10.96;56.49;101739.41;4874820;29;10962;-77
2021/04/28 07:16:57;;;;;;;;;14.75;14.75;;;;;11.15;57.10;101742.09;4869473;29;10925;-78
2021/04/28 07:19:24;;;;;;;;;16.25;16.25;;;;;11.32;57.94;101749.75;4891864;29;10945;-77
2021/04/28 07:22:20;;;;;;;;;15.75;15.75;;;;;11.44;56.68;101752.00;4889895;29;10950;-78
2021/04/28 07:25:16;;;;;;;;;14.75;14.75;;;;;11.39;56.00;101756.50;4870974;29;10925;-79
2021/04/28 07:28:11;;;;;;;;;11.25;11.25;;;;;11.45;56.41;101753.63;4883711;29;10957;-77
2021/04/28 07:31:08;;;;;;;;;14.50;14.50;;;;;11.37;55.57;101757.97;4882901;29;10959;-76
2021/04/28 07:34:03;;;;;;;;;15.25;15.25;;;;;11.71;56.50;101751.91;4880143;29;10817;-75
2021/04/28 07:36:30;;;;;;;;;13.25;13.25;;;;;12.06;56.29;101749.47;4895215;29;10833;-76
2021/04/28 07:39:26;;;;;;;;;15.75;14.75;;;;;12.39;55.71;101756.38;4876291;29;11099;-77
2021/04/28 07:42:21;;;;;;;;;12.75;12.75;;;;;12.25;55.14;101753.66;4891947;29;10682;-76
2021/04/28 07:45:18;;;;;;;;;12.25;12.25;;;;;12.05;53.43;101756.16;4888832;29;10632;-76
2021/04/28 07:48:09;;;;;;;;;17.00;17.00;;;;;12.40;54.16;101759.94;4892336;29;10743;-75
2021/04/28 07:50:39;;;;;;;;;8.75;8.75;;;;;12.82;54.72;101746.63;4894771;29;10582;-75
2021/04/28 07:53:06;;;;;;;;;13.00;13.00;;;;;12.18;53.50;101758.00;4894496;29;10505;-77
2021/04/28 07:56:01;;;;;;;;;9.00;9.00;;;;;12.74;52.78;101753.78;4889509;29;10389;-76
2021/04/28 07:58:30;;;;;;;;;15.50;15.50;;;;;12.94;54.02;101755.16;4881524;29;10462;-76
2021/04/28 08:01:27;;;;;;;;;9.50;9.50;;;;;13.12;51.60;101751.31;4880701;29;10223;-76
2021/04/28 08:03:54;;;;;;;;;11.75;11.75;;;;;13.62;51.74;101746.19;4895633;29;10277;-76
2021/04/28 08:06:49;;;;;;;;;16.25;16.25;;;;;13.71;50.05;101751.75;4887844;29;10161;-77
2021/04/28 08:09:31;;;;;;;;;9.00;9.00;;;;;13.67;50.05;101761.09;4880231;29;10198;-75
2021/04/28 08:12:17;;;;;;;;;11.25;11.25;;;;;13.77;50.41;101750.44;4868135;29;9930;-76
2021/04/28 08:15:14;;;;;;;;;11.75;11.75;;;;;14.12;50.25;101744.88;4898320;29;10073;-76
2021/04/28 08:18:10;;;;;;;;;12.25;12.25;;;;;14.02;51.02;101762.69;4885717;29;9980;-78
2021/04/28 08:21:05;;;;;;;;;11.00;11.00;;;;;13.72;50.58;101755.34;4903243;29;10726;-76
2021/04/28 08:23:43;;;;;;;;;10.00;10.00;;;;;13.99;51.02;101757.81;4909750;29;9960;-75
2021/04/28 08:26:19;;;;;;;;;8.25;8.25;;;;;13.88;51.30;101767.63;4902227;29;9969;-75
2021/04/28 08:28:57;;;;;;;;;12.00;12.00;;;;;13.80;51.50;101762.88;4899185;29;9800;-76
2021/04/28 08:31:24;;;;;;;;;8.75;8.75;;;;;13.78;52.35;101756.81;4893200;29;9970;-76
2021/04/28 08:33:56;;;;;;;;;12.00;12.00;;;;;13.69;50.66;101756.81;4880211;29;10112;-78
2021/04/28 08:36:23;;;;;;;;;11.75;11.00;;;;;13.38;50.53;101759.72;4893633;29;9996;-76
2021/04/28 08:39:19;;;;;;;;;11.00;11.00;;;;;13.25;51.84;101761.50;4898511;29;9859;-77
2021/04/28 08:41:54;;;;;;;;;12.25;12.25;;;;;13.01;52.55;101755.50;4895559;29;10122;-76
2021/04/28 08:44:51;;;;;;;;;9.75;9.75;;;;;13.81;52.90;101772.88;4875232;29;10111;-76
2021/04/28 08:47:46;;;;;;;;;6.00;6.00;;;;;13.18;51.21;101758.31;4859456;29;10169;-76
2021/04/28 08:50:44;;;;;;;;;11.00;11.00;;;;;13.58;49.43;101770.22;4871688;29;10727;-77
2021/04/28 08:53:40;;;;;;;;;11.50;11.50;;;;;14.13;49.83;101766.00;4863158;29;10249;-79
2021/04/28 08:56:36;;;;;;;;;10.00;10.00;;;;;14.15;49.57;101767.28;4878858;29;10830;-79
2021/04/28 08:59:31;;;;;;;;;12.75;12.75;;;;;14.63;49.87;101755.09;4878823;29;10073;-76
2021/04/28 09:02:28;;;;;;;;;11.00;11.00;;;;;14.35;49.73;101760.22;4878598;29;9884;-79
2021/04/28 09:05:10;;;;;;;;;10.00;10.00;;;;;14.29;47.73;101767.09;4879792;29;9810;-77
2021/04/28 09:08:10;;;;;;;;;9.75;9.75;;;;;13.78;49.09;101767.94;4878232;29;9568;-77
2021/04/28 09:10:40;;;;;;;;;10.75;10.75;;;;;14.18;48.84;101758.28;4884703;29;9660;-74
2021/04/28 09:13:17;;;;;;;;;14.00;14.00;;;;;14.44;48.82;101774.13;4878309;29;9524;-75
2021/04/28 09:15:50;;;;;;;;;11.25;11.25;;;;;14.28;49.47;101767.44;4878423;29;9985;-77
2021/04/28 09:18:46;;;;;;;;;11.50;11.00;;;;;13.98;48.55;101756.19;4868106;29;9710;-76
2021/04/28 09:21:50;;;;;;;;;11.00;11.00;;;;;13.56;50.18;101757.78;4860258;29;9591;-77
2021/04/28 09:24:52;;;;;;;;;10.75;10.75;;;;;13.39;51.10;101760.53;4862051;29;9967;-78
2021/04/28 09:27:37;;;;;;;;;9.25;9.25;;;;;13.46;48.83;101758.94;4849366;29;9937;-78
2021/04/28 09:30:32;;;;;;;;;8.25;8.25;;;;;13.82;49.43;101753.06;4863764;29;9930;-78
2021/04/28 09:33:10;;;;;;;;;11.25;11.25;;;;;14.00;49.54;101745.53;4860672;29;10063;-77
2021/04/28 09:35:42;;;;;;;;;10.75;10.25;;;;;14.37;47.15;101743.19;4852841;29;9836;-78
2021/04/28 09:38:52;;;;;;;;;8.25;8.25;;;;;14.09;48.29;101746.34;4870237;29;9678;-77
2021/04/28 09:41:36;;;;;;;;;12.25;12.00;;;;;13.91;46.63;101741.94;4879034;29;9647;-78
2021/04/28 09:44:33;;;;;;;;;10.50;10.50;;;;;14.65;48.43;101741.69;4879618;29;9754;-76
2021/04/28 09:47:29;;;;;;;;;10.50;10.50;;;;;14.67;46.35;101736.59;4872151;29;9848;-76
2021/04/28 09:50:28;;;;;;;;;10.75;10.75;;;;;15.20;46.12;101735.19;4877660;29;9595;-75
2021/04/28 09:53:25;;;;;;;;;10.00;10.00;;;;;15.79;46.79;101735.09;4877766;29;9561;-76
2021/04/28 09:55:55;;;;;;;;;12.00;12.00;;;;;15.76;45.04;101748.91;4878436;29;9414;-77
2021/04/28 09:58:52;;;;;;;;;11.00;11.00;;;;;15.64;45.74;101744.09;4877465;29;9282;-77
2021/04/28 10:01:57;;;;;;;;;11.33;11.33;;;;;16.03;45.37;101747.56;4877577;29;9266;-77
2021/04/28 10:05:13;;;;;;;;;12.00;12.00;;;;;15.30;44.15;101743.13;4852776;29;9213;-77
2021/04/28 10:08:18;;;;;;;;;12.67;12.67;;;;;15.87;44.10;101743.72;4859467;29;9277;-78
2021/04/28 10:10:48;;;;;;;;;12.67;12.67;;;;;16.39;44.37;101744.06;4860208;29;9109;-77
2021/04/28 10:13:31;;;;;;;;;10.50;9.00;;;;;16.24;42.92;101737.13;4871326;29;8959;-82
2021/04/28 10:16:15;;;;;;;;;8.75;8.75;;;;;16.86;42.78;101738.91;4880700;29;8875;-82
2021/04/28 10:18:46;;;;;;;;;11.00;11.00;;;;;17.01;40.76;101723.44;4883422;29;8994;-83
2021/04/28 10:21:19;;;;;;;;;8.75;8.75;;;;;16.88;41.87;101733.81;4877698;29;8885;-81
2021/04/28 10:23:47;;;;;;;;;8.75;8.75;;;;;17.07;39.82;101733.22;4874437;29;8897;-82
2021/04/28 10:26:17;;;;;;;;;9.50;9.00;;;;;16.76;41.37;101747.75;4882794;29;8849;-81
2021/04/28 10:28:45;;;;;;;;;9.00;9.00;;;;;17.24;41.28;101734.97;4877472;29;8850;-80
2021/04/28 10:31:41;;;;;;;;;7.00;7.00;;;;;16.79;40.29;101730.31;4877302;29;8874;-79
2021/04/28 10:34:45;;;;;;;;;10.50;10.50;;;;;17.08;41.23;101745.22;4871489;29;8867;-79
2021/04/28 10:37:24;;;;;;;;;8.00;8.00;;;;;16.62;41.22;101741.66;4881054;29;8856;-78
2021/04/28 10:39:51;;;;;;;;;8.00;8.00;;;;;16.43;39.59;101739.41;4880978;29;8864;-78
2021/04/28 10:42:48;;;;;;;;;11.50;11.50;;;;;16.99;44.63;101738.94;4862034;29;8887;-79
2021/04/28 10:45:22;;;;;;;;;9.25;9.00;;;;;17.07;42.89;101750.00;4880742;29;8903;-79
2021/04/28 10:47:52;;;;;;;;;9.50;9.50;;;;;16.08;42.05;101744.53;4877619;29;8886;-79
2021/04/28 10:50:42;;;;;;;;;9.25;9.00;;;;;16.70;42.63;101745.53;4879568;29;9598;-79
2021/04/28 10:53:15;;;;;;;;;15.25;11.25;;;;;16.96;40.07;101737.66;4881781;29;8872;-79
2021/04/28 10:56:15;;;;;;;;;8.50;8.50;;;;;16.46;42.70;101729.53;4876948;29;8888;-80
2021/04/28 10:59:30;;;;;;;;;8.00;8.00;;;;;16.10;43.40;101737.47;4892641;29;8892;-79
2021/04/28 11:02:30;;;;;;;;;9.00;9.00;;;;;16.16;43.46;101737.22;4868832;29;8863;-80
2021/04/28 11:05:02;;;;;;;;;2.75;2.75;;;;;15.75;42.90;101728.59;4882247;29;9025;-80
2021/04/28 11:07:54;;;;;;;;;11.50;11.50;;;;;16.11;43.09;101724.31;4881651;29;9618;-80
2021/04/28 11:10:49;;;;;;;;;8.00;8.00;;;;;15.92;42.30;101724.81;4886584;29;8863;-80
2021/04/28 11:13:35;;;;;;;;;10.33;10.33;;;;;16.26;44.82;101728.44;4878121;29;8878;-79
2021/04/28 11:16:48;;;;;;;;;10.67;10.67;;;;;16.54;41.48;101726.63;4898782;29;9018;-80
2021/04/28 11:19:44;;;;;;;;;12.33;12.33;;;;;16.42;41.93;101740.59;4872805;29;9091;-81
2021/04/28 11:22:16;;;;;;;;;11.75;11.25;;;;;16.49;41.91;101731.66;4899012;29;9138;-80
2021/04/28 11:25:11;;;;;;;;;7.25;7.25;;;;;16.90;44.30;101723.09;4881603;29;8890;-80
2021/04/28 11:28:10;;;;;;;;;15.50;13.75;;;;;17.02;45.10;101735.44;4879978;29;8864;-80
2021/04/28 11:31:09;;;;;;;;;17.00;17.00;;;;;17.30;49.69;101725.16;4876994;29;8859;-80
2021/04/28 11:33:52;;;;;;;;;9.00;9.00;;;;;17.63;45.61;101721.38;4864812;29;8851;-81
2021/04/28 11:36:30;;;;;;;;;9.00;9.00;;;;;17.53;43.07;101728.28;4848088;29;8889;-82
2021/04/28 11:38:57;;;;;;;;;6.75;6.75;;;;;17.41;40.49;101717.94;4877038;29;8869;-82
2021/04/28 11:41:53;;;;;;;;;9.25;9.25;;;;;17.32;40.40;101728.41;4874215;29;8891;-82
2021/04/28 11:44:51;;;;;;;;;8.25;8.00;;;;;17.00;38.62;101729.38;4884703;29;8948;-80
2021/04/28 11:47:28;;;;;;;;;10.50;10.00;;;;;17.64;46.11;101715.44;4881378;29;8860;-83
2021/04/28 11:50:32;;;;;;;;;11.00;11.00;;;;;17.13;40.72;101717.03;4879673;29;9078;-84
2021/04/28 11:53:22;;;;;;;;;12.25;11.50;;;;;16.91;43.06;101724.72;4881098;29;8956;-83
2021/04/28 11:56:46;;;;;;;;;10.50;10.50;;;;;16.44;40.84;101735.47;4861597;29;8988;-83
2021/04/28 11:59:44;;;;;;;;;10.50;10.50;;;;;16.92;44.60;101740.31;4856455;29;8874;-84
2021/04/28 12:02:13;;;;;;;;;8.00;8.00;;;;;16.42;38.91;101725.81;4881088;29;8912;-82
2021/04/28 12:04:54;;;;;;;;;12.33;12.33;;;;;16.10;43.50;101723.50;4880198;29;8865;-82
2021/04/28 12:07:48;;;;;;;;;8.67;8.67;;;;;15.73;40.24;101722.53;4880701;29;9807;-83
2021/04/28 12:10:51;;;;;;;;;10.75;10.75;;;;;16.41;52.54;101727.78;4879843;29;9183;-83
2021/04/28 12:13:18;;;;;;;;;10.67;10.67;;;;;16.85;49.34;101728.91;4880699;29;8849;-83
2021/04/28 12:16:14;;;;;;;;;9.25;9.25;;;;;16.25;42.53;101722.03;4890903;29;9100;-83
2021/04/28 12:19:12;;;;;;;;;10.67;10.67;;;;;16.50;41.44;101727.69;4898391;29;8849;-82
2021/04/28 12:21:53;;;;;;;;;13.67;13.67;;;;;16.41;39.33;101722.22;4899292;29;8980;-82
2021/04/28 12:24:58;;;;;;;;;12.25;12.25;;;;;16.78;44.43;101725.88;4898389;29;8964;-82
2021/04/28 12:27:37;;;;;;;;;14.00;14.00;;;;;16.60;44.34;101725.25;4899389;29;8850;-83
2021/04/28 12:30:34;;;;;;;;;53.50;39.25;;;;;16.52;49.71;101722.56;4898030;29;9226;-83
2021/04/28 12:33:29;;;;;;;;;18.00;17.00;;;;;16.17;39.99;101716.53;4898079;29;10047;-76
2021/04/28 12:36:11;;;;;;;;;178.00;134.75;;;;;16.75;51.65;101715.41;4896486;29;9360;-78
2021/04/28 12:39:56;;;;;;;;;9.33;9.33;;;;;16.70;38.90;101717.59;4878336;29;11613;-81
2021/04/28 12:43:21;;;;;;;;;11.75;11.75;;;;;16.70;38.54;101718.41;4864220;29;9747;-81
2021/04/28 12:46:13;;;;;;;;;9.75;9.75;;;;;16.76;38.36;101719.00;4879371;29;8950;-82
2021/04/28 13:03:42;;;;;;;;;11.25;11.25;;;;;16.43;38.29;101721.84;5010969;23;9006;-76
2021/04/28 13:06:41;;;;;;;;;9.33;9.33;;;;;16.36;38.55;101720.44;4883702;29;8883;-76
2021/04/28 13:09:37;;;;;;;;;11.33;11.33;;;;;16.34;38.44;101714.41;4892185;29;9069;-76
2021/04/28 13:12:38;;;;;;;;;8.00;8.00;;;;;15.85;37.96;101727.34;4881820;29;9812;-75
2021/04/28 13:15:40;;;;;;;;;9.33;9.33;;;;;16.19;38.96;101715.03;4889760;29;9108;-77
2021/04/28 13:18:48;;;;;;;;;9.67;9.67;;;;;16.58;38.83;101716.41;4896484;29;8935;-76